KJER

Jerome County Airport

Jerome, Idaho, USA
METAR KJER 191153Z AUTO 23010KT 10SM OVC050 03/01 A3024 RMK AO2 SLP253 60002 70002 T00280011 10044 20028 51016
Observed Flight Rules
Dec-19 @ 11:53 UTC (25 minutes ago) Visual Flight Rules
Wind Visibility Clouds
230° at 10 knots 10 miles
  • Overcast at 5,000' AGL
Temperatures Readings
Current 3°C / 37°F
Dewpoint 1°C / 34°F
Humidity 87%
Altimeter 30.24" Hg
Pressure 1025.3 hPa
Elevation 1222
METAR KJER 191153Z AUTO 23010KT 10SM OVC050 03/01 A3024 RMK AO2 SLP253 60002 70002 T00280011 10044 20028 51016
Observed Flight Rules
Dec-19 @ 11:53 UTC
(25 minutes ago)
VFR
Wind Visibility
230° at 10 knots 10 miles
Clouds
  • Overcast at 5,000' AGL
Temperature Dewpoint
3°C / 37°F 1°C / 34°F
Humidity Altimeter Pressure
87% 30.24" Hg 1025.3 hPa